Time;durP1;ratioP1;P1;durP2;ratioP2;P2;SDS_P1;SDS_P2;PMS_P1;PMS_P2;Temp;Humidity;BMP_temperature;BMP_pressure;BME280_temperature;BME280_humidity;BME280_pressure;Samples;Min_cycle;Max_cycle;Signal;HPM_P1;HPM_P2
2023/09/01 00:03:36;;;;;;;2.80;2.20;;;13.20;99.90;;;;;;10456568;28;20257;-90
2023/09/01 00:08:38;;;;;;;2.13;1.85;;;13.20;99.90;;;;;;10455149;28;20598;-90
2023/09/01 00:13:41;;;;;;;3.35;2.05;;;13.20;99.90;;;;;;10456599;28;20539;-91
2023/09/01 00:18:44;;;;;;;5.97;2.53;;;13.10;99.90;;;;;;10456795;28;20199;-91
2023/09/01 00:23:47;;;;;;;4.15;2.38;;;13.00;99.90;;;;;;10456321;28;20264;-90
2023/09/01 00:28:49;;;;;;;2.42;2.13;;;13.00;99.90;;;;;;10455947;28;20268;-90
2023/09/01 00:33:52;;;;;;;3.60;2.65;;;13.00;99.90;;;;;;10454422;28;20203;-90
2023/09/01 00:38:54;;;;;;;3.20;2.30;;;13.00;99.90;;;;;;10452932;28;20211;-90
2023/09/01 00:43:58;;;;;;;3.47;1.90;;;12.90;99.90;;;;;;10455650;28;20199;-90
2023/09/01 00:49:01;;;;;;;4.13;2.72;;;12.80;99.90;;;;;;10454447;28;20219;-90
2023/09/01 00:54:04;;;;;;;4.13;2.50;;;12.70;99.90;;;;;;10455339;28;20207;-91
2023/09/01 00:59:07;;;;;;;2.63;2.20;;;12.50;99.90;;;;;;10463287;28;20619;-91
2023/09/01 01:04:11;;;;;;;3.25;2.17;;;12.40;99.90;;;;;;10462381;28;20273;-91
2023/09/01 01:09:44;;;;;;;5.68;3.20;;;12.30;99.90;;;;;;10459899;28;20307;-91
2023/09/01 01:14:51;;;;;;;10.32;4.28;;;12.20;99.90;;;;;;10461865;28;20217;-91
2023/09/01 01:20:02;;;;;;;11.48;4.85;;;12.20;99.90;;;;;;10460820;28;20233;-91
2023/09/01 01:25:12;;;;;;;10.73;4.30;;;12.20;99.90;;;;;;10493464;28;20568;-91
2023/09/01 01:30:15;;;;;;;12.47;6.23;;;12.10;99.90;;;;;;10459242;28;20249;-90
2023/09/01 01:36:19;;;;;;;13.23;4.97;;;12.10;99.90;;;;;;10442518;28;20230;-91
2023/09/01 01:41:45;;;;;;;10.95;4.97;;;12.20;99.90;;;;;;10426227;28;20569;-90
2023/09/01 01:46:49;;;;;;;6.43;4.07;;;12.10;99.90;;;;;;10459845;28;20253;-91
2023/09/01 01:51:52;;;;;;;5.32;3.60;;;12.10;99.90;;;;;;10458231;28;20234;-91
2023/09/01 01:56:55;;;;;;;3.80;2.53;;;12.00;99.90;;;;;;10458536;28;20199;-91
2023/09/01 02:01:58;;;;;;;3.85;2.53;;;12.00;99.90;;;;;;10458712;28;20245;-90
2023/09/01 02:07:05;;;;;;;5.40;3.10;;;12.10;99.90;;;;;;10459570;28;20227;-91
2023/09/01 02:12:08;;;;;;;4.97;2.57;;;12.10;99.90;;;;;;10459942;28;20647;-92
2023/09/01 02:17:10;;;;;;;6.45;2.42;;;12.10;99.90;;;;;;10460962;28;20951;-92
2023/09/01 02:22:13;;;;;;;3.58;2.60;;;12.10;99.90;;;;;;10459962;28;20221;-92
2023/09/01 02:27:16;;;;;;;4.67;2.67;;;12.00;99.90;;;;;;10458033;28;20252;-92
2023/09/01 02:32:20;;;;;;;6.07;3.08;;;11.90;99.90;;;;;;10457137;28;20223;-92
2023/09/01 02:37:22;;;;;;;4.72;2.88;;;11.90;99.90;;;;;;10456475;28;20260;-92
2023/09/01 02:42:25;;;;;;;3.05;2.75;;;12.00;99.90;;;;;;10497628;28;20268;-92
2023/09/01 02:47:28;;;;;;;4.55;2.97;;;12.00;99.90;;;;;;10483986;28;20959;-90
2023/09/01 02:52:31;;;;;;;3.03;2.63;;;12.10;99.90;;;;;;10450466;28;20662;-92
2023/09/01 02:57:35;;;;;;;2.80;2.60;;;12.10;99.90;;;;;;10452577;28;20239;-91
2023/09/01 03:02:38;;;;;;;3.08;2.78;;;12.10;99.90;;;;;;10450545;28;20254;-91
2023/09/01 03:07:41;;;;;;;3.40;2.95;;;12.20;99.90;;;;;;10450189;28;20250;-92
2023/09/01 03:12:45;;;;;;;4.18;3.50;;;12.50;99.90;;;;;;10466186;28;20242;-91
2023/09/01 03:17:47;;;;;;;5.65;2.47;;;12.50;99.90;;;;;;10449634;28;20695;-92
2023/09/01 03:22:51;;;;;;;4.60;2.15;;;12.40;99.90;;;;;;10470938;28;20264;-92
2023/09/01 03:27:53;;;;;;;3.55;2.25;;;12.20;99.90;;;;;;10477449;28;20234;-91
2023/09/01 03:32:57;;;;;;;4.10;2.63;;;12.00;99.90;;;;;;10448876;28;20199;-91
2023/09/01 03:38:00;;;;;;;6.18;2.67;;;12.10;99.90;;;;;;10448412;28;20235;-91
2023/09/01 03:43:03;;;;;;;2.90;2.17;;;11.90;99.90;;;;;;10447887;28;20234;-92
2023/09/01 03:48:06;;;;;;;2.50;2.30;;;11.70;99.90;;;;;;10449449;28;20219;-91
2023/09/01 03:53:09;;;;;;;5.55;2.60;;;11.50;99.90;;;;;;10448631;28;20250;-92
2023/09/01 03:58:11;;;;;;;3.70;2.90;;;11.30;99.90;;;;;;10447701;28;20256;-91
2023/09/01 04:03:14;;;;;;;2.55;2.35;;;11.10;99.90;;;;;;10484937;28;20233;-92
2023/09/01 04:08:17;;;;;;;4.47;3.05;;;11.00;99.90;;;;;;10475332;28;20822;-91
2023/09/01 04:13:19;;;;;;;3.27;2.97;;;10.90;99.90;;;;;;10447955;28;20207;-91
2023/09/01 04:18:22;;;;;;;3.00;2.57;;;10.80;99.90;;;;;;10447511;28;20227;-91
2023/09/01 04:23:25;;;;;;;2.93;2.60;;;10.70;99.90;;;;;;10495516;28;20230;-91
2023/09/01 04:28:28;;;;;;;9.00;3.90;;;10.60;99.90;;;;;;10449974;28;20242;-91
2023/09/01 04:33:32;;;;;;;6.87;4.07;;;10.60;99.90;;;;;;10455607;28;20226;-90
2023/09/01 04:38:35;;;;;;;3.63;2.40;;;10.60;99.90;;;;;;10455485;28;20235;-92
2023/09/01 04:43:38;;;;;;;3.33;2.63;;;10.60;99.90;;;;;;10453175;28;20203;-91
2023/09/01 04:48:42;;;;;;;3.87;3.43;;;10.50;99.90;;;;;;10454921;28;20250;-92
2023/09/01 04:53:45;;;;;;;3.57;3.00;;;10.50;99.90;;;;;;10463736;28;20636;-89
2023/09/01 04:58:47;;;;;;;4.97;2.63;;;10.60;99.90;;;;;;10466297;28;20206;-89
2023/09/01 05:03:50;;;;;;;3.30;3.00;;;10.50;99.90;;;;;;10454445;28;20230;-89
2023/09/01 05:08:52;;;;;;;4.17;2.90;;;10.60;99.90;;;;;;10453049;28;20319;-91
2023/09/01 05:13:55;;;;;;;5.13;2.80;;;10.70;99.90;;;;;;10453532;28;20203;-91
2023/09/01 05:18:58;;;;;;;5.57;3.37;;;10.80;99.90;;;;;;10455712;28;20566;-91
2023/09/01 05:24:01;;;;;;;3.10;2.80;;;10.90;99.90;;;;;;10483755;28;20230;-91
2023/09/01 05:29:03;;;;;;;3.50;3.20;;;11.20;99.90;;;;;;10480999;28;20261;-89
2023/09/01 05:34:06;;;;;;;4.03;2.77;;;11.30;99.90;;;;;;10463272;28;20238;-91
2023/09/01 05:39:09;;;;;;;3.50;2.03;;;11.90;99.90;;;;;;10451173;28;20300;-91
2023/09/01 05:44:11;;;;;;;2.88;2.45;;;12.00;99.90;;;;;;10452574;28;20300;-91
2023/09/01 05:49:14;;;;;;;2.83;2.35;;;12.20;99.90;;;;;;10451574;28;20284;-91
2023/09/01 05:54:20;;;;;;;3.63;2.80;;;12.50;99.90;;;;;;10449524;28;20922;-90
2023/09/01 05:59:22;;;;;;;5.72;2.40;;;12.60;99.90;;;;;;10450763;28;20238;-91
2023/09/01 06:04:25;;;;;;;3.45;2.30;;;12.60;99.90;;;;;;10450777;28;20261;-90
2023/09/01 06:09:27;;;;;;;3.00;2.30;;;12.70;99.90;;;;;;10452393;28;20262;-91
2023/09/01 06:14:30;;;;;;;3.03;2.13;;;12.80;99.90;;;;;;10452989;28;20262;-91
2023/09/01 06:19:33;;;;;;;5.28;2.53;;;12.80;99.90;;;;;;10482232;28;21064;-91
2023/09/01 06:24:36;;;;;;;2.70;2.42;;;;;;;;;;10494792;28;20246;-90
2023/09/01 06:29:38;;;;;;;6.50;2.70;;;13.10;99.90;;;;;;10494732;28;20302;-92
2023/09/01 06:34:42;;;;;;;4.70;2.53;;;13.20;99.90;;;;;;10494311;28;20275;-90
2023/09/01 06:39:44;;;;;;;2.80;2.60;;;13.40;99.90;;;;;;10493425;28;20226;-90
2023/09/01 06:44:47;;;;;;;6.10;2.63;;;13.50;99.90;;;;;;10492535;28;20238;-90
2023/09/01 06:49:50;;;;;;;3.42;2.45;;;13.90;99.90;;;;;;10465098;28;20308;-88
2023/09/01 06:54:52;;;;;;;3.72;2.58;;;14.00;99.90;;;;;;10449330;28;20677;-90
2023/09/01 06:59:55;;;;;;;3.30;2.55;;;14.30;99.90;;;;;;10469962;28;20303;-91
2023/09/01 07:04:58;;;;;;;2.20;1.58;;;14.40;99.90;;;;;;10488684;28;20233;-89
2023/09/01 07:10:01;;;;;;;1.80;1.60;;;15.20;99.90;;;;;;10490473;28;20322;-90
2023/09/01 07:15:04;;;;;;;2.65;1.67;;;15.60;99.90;;;;;;10465184;28;20238;-90
2023/09/01 07:20:09;;;;;;;3.85;2.00;;;15.50;99.90;;;;;;10462371;28;20261;-89
2023/09/01 07:25:14;;;;;;;2.53;1.50;;;15.50;99.90;;;;;;10489565;28;20237;-90
2023/09/01 07:30:17;;;;;;;5.00;2.50;;;15.70;99.90;;;;;;10490401;28;20265;-90
2023/09/01 07:35:20;;;;;;;2.97;1.40;;;16.00;99.90;;;;;;10490181;28;20230;-90
2023/09/01 07:40:23;;;;;;;1.60;1.30;;;16.10;99.90;;;;;;10484941;28;20245;-91
2023/09/01 07:45:27;;;;;;;4.25;2.05;;;16.40;99.90;;;;;;10482845;28;20237;-89
2023/09/01 07:50:30;;;;;;;2.58;2.00;;;16.60;99.90;;;;;;10475737;28;20383;-91
2023/09/01 07:55:33;;;;;;;1.83;1.45;;;16.80;99.60;;;;;;10449161;28;20222;-91
2023/09/01 08:00:37;;;;;;;3.42;1.48;;;17.00;99.30;;;;;;10455237;28;20225;-90
2023/09/01 08:05:40;;;;;;;3.95;2.10;;;17.40;98.70;;;;;;10415444;28;20296;-88
2023/09/01 08:10:43;;;;;;;2.10;1.17;;;17.70;97.80;;;;;;10480572;28;20677;-89
2023/09/01 08:15:46;;;;;;;7.22;2.60;;;17.70;97.90;;;;;;10483243;28;20663;-90
2023/09/01 08:20:48;;;;;;;3.33;1.38;;;17.70;97.20;;;;;;10450561;28;20223;-90
2023/09/01 08:25:51;;;;;;;1.88;1.48;;;17.90;97.70;;;;;;10451282;28;20299;-89
2023/09/01 08:31:02;;;;;;;3.28;1.67;;;18.00;97.90;;;;;;10451283;28;20262;-90
2023/09/01 08:36:06;;;;;;;2.58;1.83;;;18.20;96.70;;;;;;10434447;28;20238;-89
2023/09/01 08:41:09;;;;;;;4.82;1.63;;;18.20;96.00;;;;;;10458156;28;20295;-89
2023/09/01 08:46:13;;;;;;;2.00;1.80;;;18.30;96.40;;;;;;10446687;28;20273;-89
2023/09/01 08:51:19;;;;;;;4.68;2.00;;;18.40;94.20;;;;;;10430219;28;20335;-90
2023/09/01 08:56:21;;;;;;;3.70;2.22;;;18.50;95.30;;;;;;10479811;28;20222;-90
2023/09/01 09:01:27;;;;;;;2.10;1.92;;;;;;;;;;10465166;28;20291;-89
2023/09/01 09:06:38;;;;;;;2.47;1.63;;;19.00;94.20;;;;;;10480808;28;20299;-90
2023/09/01 09:11:54;;;;;;;3.47;1.90;;;;;;;;;;10449316;28;20300;-89
2023/09/01 09:16:57;;;;;;;2.40;2.20;;;19.30;91.70;;;;;;10466807;28;20590;-90
2023/09/01 09:22:07;;;;;;;3.63;1.42;;;19.20;92.50;;;;;;10495734;28;20288;-90
2023/09/01 09:27:14;;;;;;;2.30;2.10;;;;;;;;;;10494264;28;20249;-90
2023/09/01 09:32:22;;;;;;;3.83;1.73;;;19.70;90.30;;;;;;10490007;28;20307;-90
2023/09/01 09:37:24;;;;;;;4.00;1.70;;;19.90;88.50;;;;;;10477115;28;20231;-89
2023/09/01 09:42:46;;;;;;;3.47;1.83;;;20.10;85.90;;;;;;10477193;28;20751;-90
2023/09/01 09:47:49;;;;;;;3.22;1.80;;;20.20;84.50;;;;;;10458681;28;20255;-90
2023/09/01 09:53:03;;;;;;;1.45;1.08;;;20.50;75.20;;;;;;10451886;28;20281;-89
2023/09/01 09:58:10;;;;;;;2.38;2.10;;;20.40;74.50;;;;;;10491272;28;20303;-90
2023/09/01 10:03:14;;;;;;;1.90;1.65;;;20.60;80.70;;;;;;10453492;28;20256;-90
2023/09/01 10:08:20;;;;;;;2.67;2.47;;;20.50;76.90;;;;;;10494543;28;20266;-91
2023/09/01 10:13:23;;;;;;;2.10;1.50;;;20.80;78.30;;;;;;10488811;28;20983;-88
2023/09/01 10:18:27;;;;;;;2.28;2.08;;;20.90;72.20;;;;;;10493803;28;20263;-90
2023/09/01 10:23:33;;;;;;;1.83;1.73;;;21.10;66.50;;;;;;10492964;28;20233;-90
2023/09/01 10:29:04;;;;;;;2.95;1.58;;;21.20;72.70;;;;;;10493787;28;20306;-91
2023/09/01 10:34:15;;;;;;;5.60;2.50;;;21.30;64.90;;;;;;10457390;28;20254;-92
2023/09/01 10:39:26;;;;;;;2.10;1.90;;;21.30;68.20;;;;;;10450094;28;20234;-91
2023/09/01 10:44:43;;;;;;;1.98;1.70;;;21.20;69.60;;;;;;10450684;28;20820;-90
2023/09/01 10:50:06;;;;;;;5.30;1.20;;;21.20;62.70;;;;;;10470284;28;20638;-89
2023/09/01 10:55:09;;;;;;;1.67;1.02;;;21.30;48.90;;;;;;10475356;28;20206;-89
2023/09/01 11:00:32;;;;;;;2.67;1.10;;;20.90;51.50;;;;;;10491236;28;20260;-89
2023/09/01 11:05:37;;;;;;;2.03;1.88;;;21.00;53.80;;;;;;10493135;28;20233;-88
2023/09/01 11:10:39;;;;;;;1.85;1.30;;;21.10;53.70;;;;;;10490824;28;20291;-88
2023/09/01 11:15:46;;;;;;;2.47;1.48;;;21.30;51.40;;;;;;10478023;28;20761;-88
2023/09/01 11:20:55;;;;;;;2.47;1.77;;;21.30;51.20;;;;;;10450137;28;20774;-88
2023/09/01 11:25:59;;;;;;;3.38;1.00;;;21.20;53.30;;;;;;10450535;28;20791;-88
2023/09/01 11:31:05;;;;;;;2.20;1.38;;;20.90;47.90;;;;;;10450063;28;20308;-88
2023/09/01 11:36:12;;;;;;;4.95;1.40;;;20.50;51.50;;;;;;10448741;28;20227;-86
2023/09/01 11:41:18;;;;;;;2.53;1.05;;;20.70;59.00;;;;;;10458185;28;20689;-85
2023/09/01 11:46:32;;;;;;;6.75;1.13;;;20.90;50.50;;;;;;10443889;28;20643;-85
2023/09/01 11:51:37;;;;;;;1.45;1.00;;;20.60;51.20;;;;;;10449813;28;20689;-86
2023/09/01 11:56:40;;;;;;;3.08;1.00;;;20.90;44.10;;;;;;10448743;28;20238;-87
2023/09/01 12:01:43;;;;;;;3.85;1.25;;;21.00;44.70;;;;;;10446391;28;20280;-86
2023/09/01 12:06:46;;;;;;;3.78;1.73;;;21.40;44.80;;;;;;10448834;28;20258;-87
2023/09/01 12:11:53;;;;;;;1.50;1.40;;;21.60;42.60;;;;;;10449442;28;20266;-87
2023/09/01 12:17:00;;;;;;;4.75;1.27;;;21.70;50.40;;;;;;10443651;28;20284;-87
2023/09/01 12:22:03;;;;;;;3.83;1.77;;;21.80;43.00;;;;;;10447762;28;20238;-87
2023/09/01 12:27:05;;;;;;;4.15;1.48;;;21.90;41.90;;;;;;10459389;28;20767;-86
2023/09/01 12:32:08;;;;;;;4.10;1.02;;;21.90;38.70;;;;;;10468488;28;20254;-86
2023/09/01 12:37:11;;;;;;;1.60;1.50;;;21.80;38.30;;;;;;10483824;28;20233;-86
2023/09/01 12:42:13;;;;;;;5.20;1.23;;;21.70;47.70;;;;;;10464777;28;20234;-86
2023/09/01 12:47:16;;;;;;;2.25;1.17;;;21.80;39.70;;;;;;10488489;28;20260;-87
2023/09/01 12:52:19;;;;;;;4.57;1.80;;;21.90;42.90;;;;;;10450360;28;20280;-87
2023/09/01 12:57:21;;;;;;;3.10;1.55;;;21.90;45.50;;;;;;10472547;28;20611;-86
2023/09/01 13:02:24;;;;;;;1.67;1.45;;;22.00;42.30;;;;;;10471033;28;20230;-86
2023/09/01 13:07:26;;;;;;;2.05;1.67;;;21.90;43.90;;;;;;10461352;28;20265;-86
2023/09/01 13:12:29;;;;;;;2.28;1.90;;;21.70;42.20;;;;;;10454730;28;20247;-86
2023/09/01 13:17:32;;;;;;;2.83;1.10;;;21.50;40.90;;;;;;10494248;28;20686;-86
2023/09/01 13:22:35;;;;;;;2.13;1.35;;;21.60;36.90;;;;;;10494341;28;20234;-87
2023/09/01 13:27:40;;;;;;;2.83;1.10;;;21.80;39.90;;;;;;10495750;28;20234;-86
2023/09/01 13:32:42;;;;;;;1.95;1.58;;;21.60;34.40;;;;;;10475517;28;20250;-87
2023/09/01 13:37:45;;;;;;;2.55;1.50;;;21.90;40.80;;;;;;10453024;28;20295;-87
2023/09/01 13:42:48;;;;;;;3.08;1.55;;;21.70;32.50;;;;;;10453842;28;20207;-89
2023/09/01 13:47:50;;;;;;;2.40;1.58;;;21.60;37.20;;;;;;10450375;28;20230;-86
2023/09/01 13:52:53;;;;;;;2.05;1.75;;;21.40;39.00;;;;;;10453771;28;20250;-86
2023/09/01 13:57:55;;;;;;;2.03;1.73;;;21.40;41.60;;;;;;10451210;28;20276;-86
2023/09/01 14:02:58;;;;;;;1.75;1.48;;;21.50;39.80;;;;;;10452253;28;20299;-86
2023/09/01 14:08:01;;;;;;;1.60;1.50;;;21.50;39.60;;;;;;10488022;28;20266;-86
2023/09/01 14:13:03;;;;;;;4.68;2.03;;;21.00;37.20;;;;;;10471019;28;20257;-86
2023/09/01 14:18:06;;;;;;;2.40;1.50;;;21.30;45.50;;;;;;10461907;28;20285;-86
2023/09/01 14:23:09;;;;;;;2.10;1.30;;;20.90;36.10;;;;;;10450743;28;20237;-86
2023/09/01 14:28:11;;;;;;;2.05;1.80;;;20.70;36.80;;;;;;10451885;28;20234;-86
2023/09/01 14:33:14;;;;;;;5.90;1.85;;;20.90;40.10;;;;;;10451226;28;20250;-86
2023/09/01 14:38:25;;;;;;;2.00;1.80;;;20.90;40.20;;;;;;10453364;28;20624;-86
2023/09/01 14:43:28;;;;;;;2.17;1.98;;;21.00;46.90;;;;;;10448919;28;20292;-86
2023/09/01 14:48:31;;;;;;;2.00;1.80;;;21.00;51.20;;;;;;10409760;28;20258;-87
2023/09/01 14:53:33;;;;;;;2.10;1.90;;;20.80;43.10;;;;;;10418625;28;20277;-86
2023/09/01 14:58:41;;;;;;;2.52;2.32;;;20.90;53.30;;;;;;10295291;28;10001029;-86
2023/09/01 15:03:44;;;;;;;2.13;1.90;;;21.00;44.20;;;;;;10471530;28;20500;-86
2023/09/01 15:08:47;;;;;;;1.70;1.60;;;21.00;44.50;;;;;;10447407;28;20669;-86
2023/09/01 15:13:49;;;;;;;2.72;1.85;;;21.10;46.40;;;;;;10448149;28;20280;-86
2023/09/01 15:18:52;;;;;;;2.70;2.35;;;21.00;46.40;;;;;;10448593;28;20248;-86
2023/09/01 15:23:54;;;;;;;1.92;1.80;;;21.00;52.60;;;;;;10446110;28;20234;-86
2023/09/01 15:28:57;;;;;;;3.15;1.40;;;20.90;45.40;;;;;;10462929;28;20311;-86
2023/09/01 15:34:00;;;;;;;2.28;1.92;;;20.70;45.70;;;;;;10449312;28;20254;-86
2023/09/01 15:39:03;;;;;;;6.18;1.92;;;20.50;50.40;;;;;;10469681;28;20662;-86
2023/09/01 15:44:08;;;;;;;3.45;1.63;;;20.50;47.50;;;;;;10455528;28;20272;-86
2023/09/01 15:49:11;;;;;;;4.22;2.40;;;20.50;48.80;;;;;;10450029;28;20203;-86
2023/09/01 15:54:14;;;;;;;2.92;2.15;;;20.30;54.20;;;;;;10448536;28;20308;-86
2023/09/01 15:59:17;;;;;;;2.45;2.00;;;20.30;53.70;;;;;;10449640;28;20229;-86
2023/09/01 16:04:19;;;;;;;2.28;1.95;;;20.30;52.10;;;;;;10449747;28;20230;-86
2023/09/01 16:09:22;;;;;;;3.15;1.80;;;20.20;50.90;;;;;;10466700;28;20266;-86
2023/09/01 16:14:24;;;;;;;4.38;2.10;;;20.20;53.80;;;;;;10490718;28;20254;-86
2023/09/01 16:19:27;;;;;;;6.15;2.08;;;19.90;53.60;;;;;;10490971;28;20230;-86
2023/09/01 16:24:29;;;;;;;4.13;2.42;;;19.80;51.30;;;;;;10493101;28;20233;-86
2023/09/01 16:29:32;;;;;;;2.92;2.10;;;19.50;54.20;;;;;;10468303;28;20696;-85
2023/09/01 16:34:35;;;;;;;2.15;1.90;;;19.40;56.40;;;;;;10457243;28;20274;-86
2023/09/01 16:39:37;;;;;;;3.80;1.90;;;19.30;56.20;;;;;;10457042;28;20227;-85
2023/09/01 16:44:40;;;;;;;3.63;2.05;;;19.10;58.30;;;;;;10104524;28;10000551;-85
2023/09/01 16:49:43;;;;;;;3.58;1.90;;;18.90;60.70;;;;;;10487383;28;20619;-85
2023/09/01 16:54:46;;;;;;;3.95;2.17;;;18.60;63.10;;;;;;10474022;28;20246;-86
2023/09/01 16:59:48;;;;;;;2.47;2.10;;;18.40;66.60;;;;;;10453454;28;20307;-86
2023/09/01 17:04:51;;;;;;;3.60;1.58;;;18.20;74.10;;;;;;10485741;28;20752;-88
2023/09/01 17:10:05;;;;;;;3.65;1.92;;;17.90;90.30;;;;;;10462265;28;20335;-87
2023/09/01 17:15:08;;;;;;;2.88;2.30;;;17.50;93.10;;;;;;10451868;28;20261;-87
2023/09/01 17:20:16;;;;;;;2.95;2.50;;;17.30;97.60;;;;;;10449851;28;20245;-86
2023/09/01 17:25:19;;;;;;;3.42;2.90;;;17.00;98.30;;;;;;10450453;28;20238;-87
2023/09/01 17:30:21;;;;;;;7.65;3.10;;;16.80;99.40;;;;;;10450217;28;20675;-87
2023/09/01 17:35:24;;;;;;;4.85;3.08;;;16.60;97.80;;;;;;10452171;28;20254;-86
2023/09/01 17:40:26;;;;;;;5.20;2.70;;;16.50;99.90;;;;;;10453510;28;20231;-87
2023/09/01 17:45:29;;;;;;;5.72;3.00;;;16.30;99.90;;;;;;10452826;28;20638;-87
2023/09/01 17:50:32;;;;;;;5.88;2.72;;;16.10;99.90;;;;;;10456637;28;20271;-87
2023/09/01 17:55:35;;;;;;;9.13;3.13;;;15.90;99.90;;;;;;10452518;28;20266;-87
2023/09/01 18:00:37;;;;;;;8.13;2.97;;;15.80;99.90;;;;;;10453731;28;20227;-86
2023/09/01 18:05:40;;;;;;;4.55;2.85;;;15.60;99.90;;;;;;10492795;28;20238;-86
2023/09/01 18:10:43;;;;;;;7.32;3.30;;;15.50;99.90;;;;;;10460443;28;20259;-87
2023/09/01 18:15:45;;;;;;;12.38;3.10;;;15.50;99.90;;;;;;10453492;28;20250;-87
2023/09/01 18:20:48;;;;;;;8.63;3.78;;;15.40;99.90;;;;;;10448789;28;20741;-86
2023/09/01 18:25:51;;;;;;;6.28;4.22;;;15.30;99.90;;;;;;10451361;28;20711;-87
2023/09/01 18:30:53;;;;;;;9.05;3.88;;;15.10;99.90;;;;;;10449937;28;20673;-87
2023/09/01 18:35:56;;;;;;;8.98;4.80;;;15.00;99.90;;;;;;10456134;28;20386;-87
2023/09/01 18:40:58;;;;;;;13.32;5.22;;;14.90;99.90;;;;;;10436309;28;20234;-87
2023/09/01 18:46:02;;;;;;;8.00;5.25;;;14.80;99.90;;;;;;10450096;28;20649;-87
2023/09/01 18:51:07;;;;;;;10.45;4.50;;;14.70;99.90;;;;;;10449052;28;20234;-87
2023/09/01 18:56:10;;;;;;;11.00;4.95;;;14.60;99.90;;;;;;10455293;28;20246;-87
2023/09/01 19:01:17;;;;;;;16.00;5.68;;;14.50;99.90;;;;;;10448643;28;20682;-87
2023/09/01 19:06:24;;;;;;;12.07;6.13;;;14.40;99.90;;;;;;10450390;28;20249;-87
2023/09/01 19:11:27;;;;;;;13.05;5.70;;;14.30;99.90;;;;;;10457341;28;20276;-87
2023/09/01 19:16:30;;;;;;;12.60;6.03;;;14.30;99.90;;;;;;10448690;28;20319;-86
2023/09/01 19:21:33;;;;;;;12.20;6.30;;;14.20;99.90;;;;;;10450491;28;20619;-87
2023/09/01 19:26:39;;;;;;;11.55;6.38;;;14.20;99.90;;;;;;10450179;28;20231;-87
2023/09/01 19:31:44;;;;;;;17.25;6.07;;;14.10;99.90;;;;;;10449285;28;20234;-87
2023/09/01 19:36:47;;;;;;;13.20;6.80;;;14.00;99.90;;;;;;10449727;28;20230;-87
2023/09/01 19:41:52;;;;;;;18.02;6.53;;;14.10;99.90;;;;;;10457790;28;20238;-87
2023/09/01 19:46:57;;;;;;;10.45;7.13;;;14.00;99.90;;;;;;10449681;28;20570;-87
2023/09/01 19:52:01;;;;;;;10.57;7.40;;;13.90;99.90;;;;;;10445153;28;20860;-86
2023/09/01 19:57:06;;;;;;;15.63;8.00;;;13.90;99.90;;;;;;10440951;28;20227;-86
2023/09/01 20:02:14;;;;;;;11.20;7.03;;;13.80;99.90;;;;;;10462597;28;20234;-86
2023/09/01 20:07:17;;;;;;;12.38;8.07;;;13.60;99.90;;;;;;10460520;28;20341;-88
2023/09/01 20:12:21;;;;;;;13.85;8.73;;;13.60;99.90;;;;;;10459053;28;20262;-86
2023/09/01 20:17:24;;;;;;;18.80;7.93;;;13.50;99.90;;;;;;10448727;28;20234;-88
2023/09/01 20:22:26;;;;;;;8.93;7.15;;;13.30;99.90;;;;;;10449639;28;20763;-89
2023/09/01 20:27:29;;;;;;;11.05;6.68;;;13.20;99.90;;;;;;10441336;28;20266;-88
2023/09/01 20:32:33;;;;;;;15.02;7.38;;;13.10;99.90;;;;;;10435128;28;20311;-88
2023/09/01 20:37:39;;;;;;;6.95;5.63;;;13.10;99.90;;;;;;10435571;28;20231;-88
2023/09/01 20:42:41;;;;;;;11.13;6.32;;;13.00;99.90;;;;;;10475205;28;20238;-88
2023/09/01 20:47:44;;;;;;;7.07;6.03;;;13.00;99.90;;;;;;10425260;28;20281;-88
2023/09/01 20:52:50;;;;;;;12.05;6.28;;;12.90;99.90;;;;;;10408518;28;20251;-88
2023/09/01 20:57:53;;;;;;;12.55;6.47;;;13.00;99.90;;;;;;10489384;28;20238;-88
2023/09/01 21:02:55;;;;;;;10.25;5.75;;;13.00;99.90;;;;;;10442985;28;20239;-88
2023/09/01 21:07:58;;;;;;;17.90;6.90;;;13.00;99.90;;;;;;10406536;28;20294;-88
2023/09/01 21:13:01;;;;;;;10.52;6.63;;;13.00;99.90;;;;;;10437035;28;20658;-89
2023/09/01 21:18:03;;;;;;;15.07;7.38;;;13.00;99.90;;;;;;10428177;28;20625;-88
2023/09/01 21:23:06;;;;;;;14.05;7.28;;;13.00;99.90;;;;;;10447034;28;20292;-88
2023/09/01 21:28:09;;;;;;;16.75;7.07;;;13.00;99.90;;;;;;10454842;28;20276;-88
2023/09/01 21:33:11;;;;;;;8.98;5.82;;;12.90;99.90;;;;;;10469962;28;20728;-88
2023/09/01 21:38:14;;;;;;;16.37;7.10;;;12.90;99.90;;;;;;10453176;28;20247;-88
2023/09/01 21:43:17;;;;;;;10.82;7.53;;;13.00;99.90;;;;;;10453118;28;20238;-88
2023/09/01 21:48:20;;;;;;;12.48;7.80;;;12.90;99.90;;;;;;10453263;28;20234;-88
2023/09/01 21:53:22;;;;;;;10.70;7.05;;;12.80;99.90;;;;;;10452754;28;20254;-88
2023/09/01 21:58:25;;;;;;;11.00;7.03;;;12.70;99.90;;;;;;10453983;28;20226;-88
2023/09/01 22:03:27;;;;;;;16.63;6.93;;;12.70;99.90;;;;;;10453862;28;20260;-87
2023/09/01 22:08:30;;;;;;;8.05;6.57;;;12.70;99.90;;;;;;10454957;28;20329;-88
2023/09/01 22:13:39;;;;;;;16.02;7.57;;;12.70;99.90;;;;;;10475587;28;20258;-88
2023/09/01 22:18:41;;;;;;;10.35;7.20;;;12.70;99.90;;;;;;10442720;28;20600;-89
2023/09/01 22:23:45;;;;;;;11.52;7.85;;;12.70;99.90;;;;;;10453018;28;20238;-88
2023/09/01 22:28:47;;;;;;;12.52;7.13;;;12.70;99.90;;;;;;10435379;28;20234;-89
2023/09/01 22:33:50;;;;;;;10.73;7.13;;;12.70;99.90;;;;;;10450483;28;20712;-89
2023/09/01 22:38:52;;;;;;;9.85;7.18;;;12.70;99.90;;;;;;10493433;28;20287;-89
2023/09/01 22:43:55;;;;;;;11.30;8.33;;;12.80;99.90;;;;;;10432592;28;20297;-89
2023/09/01 22:48:57;;;;;;;9.83;7.50;;;12.70;99.90;;;;;;10452093;28;20238;-89
2023/09/01 22:54:02;;;;;;;12.85;7.72;;;12.70;99.90;;;;;;10451141;28;20707;-89
2023/09/01 22:59:05;;;;;;;9.93;8.50;;;12.60;99.90;;;;;;10450271;28;20269;-89
2023/09/01 23:04:08;;;;;;;9.93;8.13;;;12.50;99.90;;;;;;10452019;28;20234;-88
2023/09/01 23:09:10;;;;;;;10.88;7.70;;;12.40;99.90;;;;;;10451229;28;20258;-88
2023/09/01 23:14:13;;;;;;;10.10;8.10;;;12.40;99.90;;;;;;10451202;28;20250;-89
2023/09/01 23:19:15;;;;;;;13.57;8.17;;;12.50;99.90;;;;;;10448665;28;20230;-88
2023/09/01 23:24:19;;;;;;;10.80;7.67;;;12.40;99.90;;;;;;10449908;28;20311;-88
2023/09/01 23:29:21;;;;;;;12.47;8.27;;;12.30;99.90;;;;;;10450712;28;20679;-88
2023/09/01 23:34:24;;;;;;;13.23;9.00;;;12.10;99.90;;;;;;10447869;28;20293;-88
2023/09/01 23:39:26;;;;;;;10.47;8.37;;;12.00;99.90;;;;;;10479711;28;20745;-88
2023/09/01 23:44:29;;;;;;;12.67;9.50;;;11.80;99.90;;;;;;10444279;28;20756;-88
2023/09/01 23:49:32;;;;;;;11.13;9.37;;;11.70;99.90;;;;;;10424234;28;20633;-88
2023/09/01 23:54:34;;;;;;;11.63;8.80;;;11.50;99.90;;;;;;10416900;28;20269;-88
2023/09/01 23:59:37;;;;;;;15.30;9.03;;;11.50;99.90;;;;;;10450125;28;20665;-88
